sensor_id;sensor_type;location;lat;lon;timestamp;pressure;altitude;pressure_sealevel;temperature;humidity
53635;BME280;39542;-34.932;138.594;2023-04-26T11:39:39;100472.52;;;22.93;54.93
53635;BME280;39542;-34.932;138.594;2023-04-26T11:40:18;100465.57;;;22.95;54.80
53635;BME280;39542;-34.932;138.594;2023-04-26T11:40:58;100467.60;;;22.95;54.68
53635;BME280;39542;-34.932;138.594;2023-04-26T11:41:34;100478.79;;;22.96;54.69
53635;BME280;39542;-34.932;138.594;2023-04-26T11:42:10;100469.77;;;23.01;54.75
53635;BME280;39542;-34.932;138.594;2023-04-26T11:51:24;100471.76;;;22.98;54.58
53635;BME280;39542;-34.932;138.594;2023-04-26T11:52:02;100467.75;;;22.97;54.57
53635;BME280;39542;-34.932;138.594;2023-04-26T11:52:40;100469.52;;;22.98;54.48
53635;BME280;39542;-34.932;138.594;2023-04-26T11:53:16;100472.03;;;23.00;54.48
53635;BME280;39542;-34.932;138.594;2023-04-26T11:53:52;100471.03;;;22.99;54.35
53635;BME280;39542;-34.932;138.594;2023-04-26T11:54:31;100465.24;;;22.98;54.37
53635;BME280;39542;-34.932;138.594;2023-04-26T11:55:08;100462.81;;;23.00;54.39
53635;BME280;39542;-34.932;138.594;2023-04-26T11:55:43;100465.96;;;23.01;54.67
53635;BME280;39542;-34.932;138.594;2023-04-26T11:56:19;100468.33;;;23.02;54.60
53635;BME280;39542;-34.932;138.594;2023-04-26T11:56:55;100466.53;;;23.01;54.49
53635;BME280;39542;-34.932;138.594;2023-04-26T11:57:32;100462.80;;;23.01;54.60
53635;BME280;39542;-34.932;138.594;2023-04-26T11:58:14;100462.03;;;23.01;54.37
53635;BME280;39542;-34.932;138.594;2023-04-26T11:58:50;100463.85;;;23.01;54.28
53635;BME280;39542;-34.932;138.594;2023-04-26T11:59:28;100456.76;;;23.01;54.34
53635;BME280;39542;-34.932;138.594;2023-04-26T12:00:13;100463.25;;;23.01;54.48
53635;BME280;39542;-34.932;138.594;2023-04-26T12:01:05;100461.68;;;22.99;54.62
53635;BME280;39542;-34.932;138.594;2023-04-26T12:01:39;100459.08;;;23.00;54.48
53635;BME280;39542;-34.932;138.594;2023-04-26T12:02:25;100455.89;;;23.00;54.81
53635;BME280;39542;-34.932;138.594;2023-04-26T12:03:05;100458.34;;;22.98;54.99
53635;BME280;39542;-34.932;138.594;2023-04-26T12:03:40;100458.16;;;22.98;54.76
53635;BME280;39542;-34.932;138.594;2023-04-26T12:04:15;100458.42;;;22.99;54.63
53635;BME280;39542;-34.932;138.594;2023-04-26T12:04:59;100463.60;;;22.98;54.59
53635;BME280;39542;-34.932;138.594;2023-04-26T12:05:34;100462.89;;;22.99;54.49
53635;BME280;39542;-34.932;138.594;2023-04-26T12:06:09;100456.99;;;22.98;54.82
53635;BME280;39542;-34.932;138.594;2023-04-26T12:06:45;100454.07;;;23.00;54.61
53635;BME280;39542;-34.932;138.594;2023-04-26T12:07:20;100457.39;;;22.99;54.56
53635;BME280;39542;-34.932;138.594;2023-04-26T12:07:56;100460.78;;;22.99;54.52
53635;BME280;39542;-34.932;138.594;2023-04-26T12:08:32;100457.36;;;22.97;54.53
53635;BME280;39542;-34.932;138.594;2023-04-26T12:09:07;100460.54;;;22.98;54.44
53635;BME280;39542;-34.932;138.594;2023-04-26T12:09:42;100458.93;;;22.97;54.72
53635;BME280;39542;-34.932;138.594;2023-04-26T12:10:18;100468.23;;;22.98;54.55
53635;BME280;39542;-34.932;138.594;2023-04-26T12:10:55;100462.79;;;22.98;54.50
53635;BME280;39542;-34.932;138.594;2023-04-26T12:11:32;100458.33;;;22.98;54.58
53635;BME280;39542;-34.932;138.594;2023-04-26T12:12:07;100460.09;;;22.98;54.37
53635;BME280;39542;-34.932;138.594;2023-04-26T12:12:47;100458.30;;;22.99;54.42
53635;BME280;39542;-34.932;138.594;2023-04-26T12:13:23;100462.35;;;22.97;54.47
53635;BME280;39542;-34.932;138.594;2023-04-26T12:14:00;100458.41;;;22.98;54.37
53635;BME280;39542;-34.932;138.594;2023-04-26T12:14:36;100460.06;;;22.98;54.37
53635;BME280;39542;-34.932;138.594;2023-04-26T12:15:12;100456.65;;;22.99;54.26
53635;BME280;39542;-34.932;138.594;2023-04-26T12:15:47;100457.22;;;22.99;54.29
53635;BME280;39542;-34.932;138.594;2023-04-26T12:16:23;100453.37;;;22.99;54.31
53635;BME280;39542;-34.932;138.594;2023-04-26T12:16:59;100447.70;;;22.99;54.54
53635;BME280;39542;-34.932;138.594;2023-04-26T12:17:36;100459.61;;;22.99;54.34
53635;BME280;39542;-34.932;138.594;2023-04-26T12:18:12;100454.56;;;22.99;54.27
53635;BME280;39542;-34.932;138.594;2023-04-26T12:18:51;100451.88;;;22.98;54.19
53635;BME280;39542;-34.932;138.594;2023-04-26T12:19:26;100453.55;;;22.98;54.23
53635;BME280;39542;-34.932;138.594;2023-04-26T12:20:09;100450.29;;;22.98;54.10
53635;BME280;39542;-34.932;138.594;2023-04-26T12:20:44;100456.06;;;22.98;54.10
53635;BME280;39542;-34.932;138.594;2023-04-26T12:21:20;100460.47;;;22.98;54.08
